sensor_id;sensor_type;location;lat;lon;timestamp;temperature;humidity
15879;DHT22;61999;51.514;14.614;2022-10-29T00:01:02;11.50;59.80
15879;DHT22;61999;51.514;14.614;2022-10-29T00:03:30;11.40;59.90
15879;DHT22;61999;51.514;14.614;2022-10-29T00:05:59;11.50;60.00
15879;DHT22;61999;51.514;14.614;2022-10-29T00:08:31;11.40;60.00
15879;DHT22;61999;51.514;14.614;2022-10-29T00:11:06;11.50;60.00
15879;DHT22;61999;51.514;14.614;2022-10-29T00:13:36;11.40;59.80
15879;DHT22;61999;51.514;14.614;2022-10-29T00:20:10;11.40;59.80
15879;DHT22;61999;51.514;14.614;2022-10-29T00:22:38;11.40;59.70
15879;DHT22;61999;51.514;14.614;2022-10-29T00:25:07;11.40;59.60
15879;DHT22;61999;51.514;14.614;2022-10-29T00:27:36;11.40;59.70
15879;DHT22;61999;51.514;14.614;2022-10-29T00:30:05;11.30;59.90
15879;DHT22;61999;51.514;14.614;2022-10-29T00:32:34;11.40;59.80
15879;DHT22;61999;51.514;14.614;2022-10-29T00:35:02;11.30;59.80
15879;DHT22;61999;51.514;14.614;2022-10-29T00:37:30;11.30;59.80
15879;DHT22;61999;51.514;14.614;2022-10-29T00:39:58;11.20;60.00
15879;DHT22;61999;51.514;14.614;2022-10-29T00:42:26;11.10;60.10
15879;DHT22;61999;51.514;14.614;2022-10-29T00:44:55;11.20;60.10
15879;DHT22;61999;51.514;14.614;2022-10-29T00:47:25;11.20;60.00
15879;DHT22;61999;51.514;14.614;2022-10-29T00:50:00;11.30;59.80
15879;DHT22;61999;51.514;14.614;2022-10-29T00:52:32;11.30;59.60
15879;DHT22;61999;51.514;14.614;2022-10-29T00:55:06;11.30;59.20
15879;DHT22;61999;51.514;14.614;2022-10-29T00:57:39;11.30;59.50
15879;DHT22;61999;51.514;14.614;2022-10-29T01:00:15;11.10;59.70
15879;DHT22;61999;51.514;14.614;2022-10-29T01:02:44;11.20;59.60
15879;DHT22;61999;51.514;14.614;2022-10-29T01:05:14;11.10;59.70
15879;DHT22;61999;51.514;14.614;2022-10-29T01:07:46;11.10;59.70
15879;DHT22;61999;51.514;14.614;2022-10-29T01:10:15;11.00;59.70
15879;DHT22;61999;51.514;14.614;2022-10-29T01:13:06;11.10;59.60
15879;DHT22;61999;51.514;14.614;2022-10-29T01:15:56;11.20;59.30
15879;DHT22;61999;51.514;14.614;2022-10-29T01:18:36;11.10;59.20
15879;DHT22;61999;51.514;14.614;2022-10-29T01:24:26;10.90;59.60
15879;DHT22;61999;51.514;14.614;2022-10-29T01:27:37;10.80;59.50
15879;DHT22;61999;51.514;14.614;2022-10-29T01:30:17;10.70;59.90
15879;DHT22;61999;51.514;14.614;2022-10-29T01:32:59;10.70;60.00
15879;DHT22;61999;51.514;14.614;2022-10-29T01:35:44;10.80;59.70
15879;DHT22;61999;51.514;14.614;2022-10-29T01:38:25;10.80;59.50
15879;DHT22;61999;51.514;14.614;2022-10-29T01:41:06;10.70;59.50
15879;DHT22;61999;51.514;14.614;2022-10-29T01:43:46;10.70;59.70
15879;DHT22;61999;51.514;14.614;2022-10-29T01:46:20;10.70;59.60
15879;DHT22;61999;51.514;14.614;2022-10-29T01:48:56;10.70;59.70
15879;DHT22;61999;51.514;14.614;2022-10-29T01:51:31;10.80;59.50
15879;DHT22;61999;51.514;14.614;2022-10-29T01:54:07;10.80;59.20
15879;DHT22;61999;51.514;14.614;2022-10-29T01:56:37;10.70;59.50
15879;DHT22;61999;51.514;14.614;2022-10-29T01:59:08;10.70;59.60
15879;DHT22;61999;51.514;14.614;2022-10-29T02:01:46;10.80;59.50
15879;DHT22;61999;51.514;14.614;2022-10-29T02:04:38;11.00;58.80
15879;DHT22;61999;51.514;14.614;2022-10-29T02:07:24;11.10;58.80
15879;DHT22;61999;51.514;14.614;2022-10-29T02:10:09;10.90;59.00
15879;DHT22;61999;51.514;14.614;2022-10-29T02:12:46;10.90;59.10
15879;DHT22;61999;51.514;14.614;2022-10-29T02:15:19;10.90;59.00
15879;DHT22;61999;51.514;14.614;2022-10-29T02:17:51;10.80;59.20
15879;DHT22;61999;51.514;14.614;2022-10-29T02:20:21;10.70;59.50
15879;DHT22;61999;51.514;14.614;2022-10-29T02:22:48;10.60;60.30
15879;DHT22;61999;51.514;14.614;2022-10-29T02:25:16;10.50;59.50
15879;DHT22;61999;51.514;14.614;2022-10-29T02:27:45;10.40;59.60
15879;DHT22;61999;51.514;14.614;2022-10-29T02:30:13;10.30;59.90
15879;DHT22;61999;51.514;14.614;2022-10-29T02:32:41;10.40;60.40
15879;DHT22;61999;51.514;14.614;2022-10-29T02:35:10;10.50;59.90
15879;DHT22;61999;51.514;14.614;2022-10-29T02:37:39;10.40;60.00
15879;DHT22;61999;51.514;14.614;2022-10-29T02:40:08;10.40;60.10
15879;DHT22;61999;51.514;14.614;2022-10-29T02:42:37;10.30;59.90
15879;DHT22;61999;51.514;14.614;2022-10-29T02:45:05;10.10;60.00
15879;DHT22;61999;51.514;14.614;2022-10-29T02:47:34;10.00;60.10
15879;DHT22;61999;51.514;14.614;2022-10-29T02:50:02;9.90;60.00
15879;DHT22;61999;51.514;14.614;2022-10-29T02:52:30;9.80;60.00
15879;DHT22;61999;51.514;14.614;2022-10-29T02:55:00;9.70;60.10
15879;DHT22;61999;51.514;14.614;2022-10-29T02:57:28;9.70;60.10
15879;DHT22;61999;51.514;14.614;2022-10-29T02:59:56;9.60;60.10
15879;DHT22;61999;51.514;14.614;2022-10-29T03:02:24;9.50;60.10
15879;DHT22;61999;51.514;14.614;2022-10-29T03:04:52;9.40;60.00
15879;DHT22;61999;51.514;14.614;2022-10-29T03:07:20;9.40;60.20
15879;DHT22;61999;51.514;14.614;2022-10-29T03:09:47;9.30;60.30
15879;DHT22;61999;51.514;14.614;2022-10-29T03:12:17;9.20;60.20
15879;DHT22;61999;51.514;14.614;2022-10-29T03:14:44;9.20;60.30
15879;DHT22;61999;51.514;14.614;2022-10-29T03:17:12;9.10;60.30
15879;DHT22;61999;51.514;14.614;2022-10-29T03:19:40;9.10;60.40
15879;DHT22;61999;51.514;14.614;2022-10-29T03:22:08;9.00;60.40
15879;DHT22;61999;51.514;14.614;2022-10-29T03:24:36;9.00;60.50
15879;DHT22;61999;51.514;14.614;2022-10-29T03:27:04;9.00;60.70
15879;DHT22;61999;51.514;14.614;2022-10-29T03:29:33;8.90;61.00
15879;DHT22;61999;51.514;14.614;2022-10-29T03:32:01;8.90;60.80
15879;DHT22;61999;51.514;14.614;2022-10-29T03:34:29;8.90;61.00
15879;DHT22;61999;51.514;14.614;2022-10-29T03:36:57;8.90;61.10
15879;DHT22;61999;51.514;14.614;2022-10-29T03:39:25;8.80;61.20
15879;DHT22;61999;51.514;14.614;2022-10-29T03:41:53;8.80;61.40
15879;DHT22;61999;51.514;14.614;2022-10-29T03:44:21;8.80;61.40
15879;DHT22;61999;51.514;14.614;2022-10-29T03:46:50;8.80;61.40
15879;DHT22;61999;51.514;14.614;2022-10-29T03:49:18;8.80;61.60
15879;DHT22;61999;51.514;14.614;2022-10-29T03:51:47;8.80;61.70
15879;DHT22;61999;51.514;14.614;2022-10-29T03:54:15;8.80;61.90
15879;DHT22;61999;51.514;14.614;2022-10-29T03:56:42;8.80;61.80
15879;DHT22;61999;51.514;14.614;2022-10-29T03:59:10;8.80;61.90
15879;DHT22;61999;51.514;14.614;2022-10-29T04:01:38;8.80;61.90
15879;DHT22;61999;51.514;14.614;2022-10-29T04:04:08;8.80;62.10
15879;DHT22;61999;51.514;14.614;2022-10-29T04:06:36;8.80;62.20
15879;DHT22;61999;51.514;14.614;2022-10-29T04:09:04;8.80;62.10
15879;DHT22;61999;51.514;14.614;2022-10-29T04:11:32;8.80;62.10
15879;DHT22;61999;51.514;14.614;2022-10-29T04:14:00;8.80;62.10
15879;DHT22;61999;51.514;14.614;2022-10-29T04:16:28;8.80;62.30
15879;DHT22;61999;51.514;14.614;2022-10-29T04:19:00;9.10;64.20
15879;DHT22;61999;51.514;14.614;2022-10-29T04:21:33;9.20;62.80
15879;DHT22;61999;51.514;14.614;2022-10-29T04:24:21;9.10;62.60
15879;DHT22;61999;51.514;14.614;2022-10-29T04:27:09;9.00;62.60
15879;DHT22;61999;51.514;14.614;2022-10-29T04:29:57;9.00;62.40
15879;DHT22;61999;51.514;14.614;2022-10-29T04:32:24;9.00;62.40
15879;DHT22;61999;51.514;14.614;2022-10-29T04:34:52;8.90;62.40
15879;DHT22;61999;51.514;14.614;2022-10-29T04:37:22;8.90;62.40
15879;DHT22;61999;51.514;14.614;2022-10-29T04:39:50;8.90;62.40
15879;DHT22;61999;51.514;14.614;2022-10-29T04:42:17;8.80;62.40
15879;DHT22;61999;51.514;14.614;2022-10-29T04:44:45;8.80;62.30
15879;DHT22;61999;51.514;14.614;2022-10-29T04:47:13;8.80;62.30
15879;DHT22;61999;51.514;14.614;2022-10-29T04:49:41;8.70;62.30
15879;DHT22;61999;51.514;14.614;2022-10-29T04:52:09;8.70;62.40
15879;DHT22;61999;51.514;14.614;2022-10-29T04:54:38;8.70;62.30
15879;DHT22;61999;51.514;14.614;2022-10-29T04:57:10;8.60;62.30
15879;DHT22;61999;51.514;14.614;2022-10-29T04:59:40;8.60;62.30
15879;DHT22;61999;51.514;14.614;2022-10-29T05:02:09;8.60;62.20
15879;DHT22;61999;51.514;14.614;2022-10-29T05:04:37;8.50;62.10
15879;DHT22;61999;51.514;14.614;2022-10-29T05:07:05;8.50;62.20
15879;DHT22;61999;51.514;14.614;2022-10-29T05:09:33;8.40;62.20
15879;DHT22;61999;51.514;14.614;2022-10-29T05:12:03;8.40;62.20
15879;DHT22;61999;51.514;14.614;2022-10-29T05:14:31;8.40;62.20
15879;DHT22;61999;51.514;14.614;2022-10-29T05:16:59;8.30;62.20
15879;DHT22;61999;51.514;14.614;2022-10-29T05:19:27;8.30;62.20
15879;DHT22;61999;51.514;14.614;2022-10-29T05:21:55;8.20;62.20
15879;DHT22;61999;51.514;14.614;2022-10-29T05:24:23;8.20;62.30
15879;DHT22;61999;51.514;14.614;2022-10-29T05:26:51;8.20;62.50
15879;DHT22;61999;51.514;14.614;2022-10-29T05:29:20;8.20;62.50
15879;DHT22;61999;51.514;14.614;2022-10-29T05:31:48;8.10;62.40
15879;DHT22;61999;51.514;14.614;2022-10-29T05:34:22;8.10;62.40
15879;DHT22;61999;51.514;14.614;2022-10-29T05:36:56;8.10;62.50
15879;DHT22;61999;51.514;14.614;2022-10-29T05:39:24;8.00;62.50
15879;DHT22;61999;51.514;14.614;2022-10-29T05:41:52;8.10;62.70
15879;DHT22;61999;51.514;14.614;2022-10-29T05:44:21;8.00;62.70
15879;DHT22;61999;51.514;14.614;2022-10-29T05:46:49;8.00;63.00
15879;DHT22;61999;51.514;14.614;2022-10-29T05:49:17;8.00;62.90
15879;DHT22;61999;51.514;14.614;2022-10-29T05:51:45;8.00;62.80
15879;DHT22;61999;51.514;14.614;2022-10-29T05:54:13;8.00;62.90
15879;DHT22;61999;51.514;14.614;2022-10-29T05:56:41;7.90;62.90
15879;DHT22;61999;51.514;14.614;2022-10-29T05:59:09;7.90;62.90
15879;DHT22;61999;51.514;14.614;2022-10-29T06:01:38;7.90;63.00
15879;DHT22;61999;51.514;14.614;2022-10-29T06:04:07;7.90;63.20
15879;DHT22;61999;51.514;14.614;2022-10-29T06:06:35;7.90;63.20
15879;DHT22;61999;51.514;14.614;2022-10-29T06:09:03;7.90;63.30
15879;DHT22;61999;51.514;14.614;2022-10-29T06:11:31;7.90;63.40
15879;DHT22;61999;51.514;14.614;2022-10-29T06:13:59;7.90;63.50
15879;DHT22;61999;51.514;14.614;2022-10-29T06:16:27;7.90;63.50
15879;DHT22;61999;51.514;14.614;2022-10-29T06:18:56;8.00;63.90
15879;DHT22;61999;51.514;14.614;2022-10-29T06:21:24;8.00;63.70
15879;DHT22;61999;51.514;14.614;2022-10-29T06:23:52;8.00;63.70
15879;DHT22;61999;51.514;14.614;2022-10-29T06:26:21;8.00;63.70
15879;DHT22;61999;51.514;14.614;2022-10-29T06:28:49;8.10;63.80
15879;DHT22;61999;51.514;14.614;2022-10-29T06:31:17;8.10;63.70
15879;DHT22;61999;51.514;14.614;2022-10-29T06:33:45;8.10;63.70
15879;DHT22;61999;51.514;14.614;2022-10-29T06:36:14;8.10;63.90
15879;DHT22;61999;51.514;14.614;2022-10-29T06:38:42;8.10;64.20
15879;DHT22;61999;51.514;14.614;2022-10-29T06:41:10;8.20;64.50
15879;DHT22;61999;51.514;14.614;2022-10-29T06:43:39;8.20;64.30
15879;DHT22;61999;51.514;14.614;2022-10-29T06:46:06;8.30;64.70
15879;DHT22;61999;51.514;14.614;2022-10-29T06:48:34;8.30;64.60
15879;DHT22;61999;51.514;14.614;2022-10-29T06:51:03;8.30;64.70
15879;DHT22;61999;51.514;14.614;2022-10-29T06:53:32;8.30;64.70
15879;DHT22;61999;51.514;14.614;2022-10-29T06:56:00;8.30;64.60
15879;DHT22;61999;51.514;14.614;2022-10-29T06:58:28;8.40;64.70
15879;DHT22;61999;51.514;14.614;2022-10-29T07:00:59;8.40;64.70
15879;DHT22;61999;51.514;14.614;2022-10-29T07:03:27;8.40;64.90
15879;DHT22;61999;51.514;14.614;2022-10-29T07:05:56;8.40;65.10
15879;DHT22;61999;51.514;14.614;2022-10-29T07:08:25;8.50;65.20
15879;DHT22;61999;51.514;14.614;2022-10-29T07:10:55;8.50;65.20
15879;DHT22;61999;51.514;14.614;2022-10-29T07:13:23;8.60;65.20
15879;DHT22;61999;51.514;14.614;2022-10-29T07:15:51;8.70;65.30
15879;DHT22;61999;51.514;14.614;2022-10-29T07:18:19;8.70;65.40
15879;DHT22;61999;51.514;14.614;2022-10-29T07:20:47;8.80;65.60
15879;DHT22;61999;51.514;14.614;2022-10-29T07:23:15;8.80;65.60
15879;DHT22;61999;51.514;14.614;2022-10-29T07:25:43;9.00;65.90
15879;DHT22;61999;51.514;14.614;2022-10-29T07:28:14;9.10;66.20
15879;DHT22;61999;51.514;14.614;2022-10-29T07:30:43;9.20;66.10
15879;DHT22;61999;51.514;14.614;2022-10-29T07:33:11;9.30;66.70
15879;DHT22;61999;51.514;14.614;2022-10-29T07:35:40;9.50;67.30
15879;DHT22;61999;51.514;14.614;2022-10-29T07:38:10;9.70;67.70
15879;DHT22;61999;51.514;14.614;2022-10-29T07:40:45;9.90;67.40
15879;DHT22;61999;51.514;14.614;2022-10-29T07:43:15;10.20;66.50
15879;DHT22;61999;51.514;14.614;2022-10-29T07:45:45;10.50;65.60
15879;DHT22;61999;51.514;14.614;2022-10-29T07:48:16;10.90;64.50
15879;DHT22;61999;51.514;14.614;2022-10-29T07:50:45;11.20;63.00
15879;DHT22;61999;51.514;14.614;2022-10-29T07:53:13;11.30;62.90
15879;DHT22;61999;51.514;14.614;2022-10-29T07:55:41;11.30;62.70
15879;DHT22;61999;51.514;14.614;2022-10-29T07:58:35;11.50;62.00
15879;DHT22;61999;51.514;14.614;2022-10-29T08:01:27;11.50;62.10
15879;DHT22;61999;51.514;14.614;2022-10-29T08:04:19;11.60;62.30
15879;DHT22;61999;51.514;14.614;2022-10-29T08:07:11;11.70;61.80
15879;DHT22;61999;51.514;14.614;2022-10-29T08:10:04;12.10;60.80
15879;DHT22;61999;51.514;14.614;2022-10-29T08:12:58;12.20;60.40
15879;DHT22;61999;51.514;14.614;2022-10-29T08:15:53;12.30;60.30
15879;DHT22;61999;51.514;14.614;2022-10-29T08:18:50;12.50;59.70
15879;DHT22;61999;51.514;14.614;2022-10-29T08:21:18;12.60;59.60
15879;DHT22;61999;51.514;14.614;2022-10-29T08:23:46;12.80;58.80
15879;DHT22;61999;51.514;14.614;2022-10-29T08:26:14;12.90;58.60
15879;DHT22;61999;51.514;14.614;2022-10-29T08:28:42;13.10;57.90
15879;DHT22;61999;51.514;14.614;2022-10-29T08:31:11;13.20;57.80
15879;DHT22;61999;51.514;14.614;2022-10-29T08:33:39;13.30;57.50
15879;DHT22;61999;51.514;14.614;2022-10-29T08:36:07;13.20;57.70
15879;DHT22;61999;51.514;14.614;2022-10-29T08:38:35;13.30;57.90
15879;DHT22;61999;51.514;14.614;2022-10-29T08:41:32;13.20;58.20
15879;DHT22;61999;51.514;14.614;2022-10-29T08:44:14;13.40;57.90
15879;DHT22;61999;51.514;14.614;2022-10-29T08:46:56;13.50;57.80
15879;DHT22;61999;51.514;14.614;2022-10-29T08:49:40;13.70;58.00
15879;DHT22;61999;51.514;14.614;2022-10-29T08:52:14;13.80;57.80
15879;DHT22;61999;51.514;14.614;2022-10-29T08:54:50;14.00;57.40
15879;DHT22;61999;51.514;14.614;2022-10-29T08:57:26;14.30;56.70
15879;DHT22;61999;51.514;14.614;2022-10-29T09:00:04;14.60;56.40
15879;DHT22;61999;51.514;14.614;2022-10-29T09:02:40;14.90;55.10
15879;DHT22;61999;51.514;14.614;2022-10-29T09:05:16;14.90;55.20
15879;DHT22;61999;51.514;14.614;2022-10-29T09:08:03;15.00;54.80
15879;DHT22;61999;51.514;14.614;2022-10-29T09:10:50;15.10;54.60
15879;DHT22;61999;51.514;14.614;2022-10-29T09:13:31;15.00;54.80
15879;DHT22;61999;51.514;14.614;2022-10-29T09:16:24;15.10;55.10
15879;DHT22;61999;51.514;14.614;2022-10-29T09:19:16;15.20;54.60
15879;DHT22;61999;51.514;14.614;2022-10-29T09:22:09;15.40;54.00
15879;DHT22;61999;51.514;14.614;2022-10-29T09:24:51;15.40;54.20
15879;DHT22;61999;51.514;14.614;2022-10-29T09:27:33;15.40;54.10
15879;DHT22;61999;51.514;14.614;2022-10-29T09:30:13;15.40;54.50
15879;DHT22;61999;51.514;14.614;2022-10-29T09:32:46;15.40;54.50
15879;DHT22;61999;51.514;14.614;2022-10-29T09:35:35;15.60;54.40
15879;DHT22;61999;51.514;14.614;2022-10-29T09:38:11;15.90;53.40
15879;DHT22;61999;51.514;14.614;2022-10-29T09:40:43;16.00;53.40
15879;DHT22;61999;51.514;14.614;2022-10-29T09:43:22;15.90;54.10
15879;DHT22;61999;51.514;14.614;2022-10-29T09:46:02;16.20;53.20
15879;DHT22;61999;51.514;14.614;2022-10-29T09:48:45;16.30;53.30
15879;DHT22;61999;51.514;14.614;2022-10-29T09:51:27;16.50;52.50
15879;DHT22;61999;51.514;14.614;2022-10-29T09:54:04;16.60;52.40
15879;DHT22;61999;51.514;14.614;2022-10-29T09:56:32;16.90;52.30
15879;DHT22;61999;51.514;14.614;2022-10-29T09:59:09;17.10;51.70
15879;DHT22;61999;51.514;14.614;2022-10-29T10:01:42;17.30;51.30
15879;DHT22;61999;51.514;14.614;2022-10-29T10:04:18;17.50;51.00
15879;DHT22;61999;51.514;14.614;2022-10-29T10:07:03;17.60;50.20
15879;DHT22;61999;51.514;14.614;2022-10-29T10:09:53;17.60;50.40
15879;DHT22;61999;51.514;14.614;2022-10-29T10:12:25;17.70;50.10
15879;DHT22;61999;51.514;14.614;2022-10-29T10:15:17;17.80;50.20
15879;DHT22;61999;51.514;14.614;2022-10-29T10:17:56;17.80;49.70
15879;DHT22;61999;51.514;14.614;2022-10-29T10:20:29;17.90;50.10
15879;DHT22;61999;51.514;14.614;2022-10-29T10:23:21;17.90;50.80
15879;DHT22;61999;51.514;14.614;2022-10-29T10:25:54;18.10;49.40
15879;DHT22;61999;51.514;14.614;2022-10-29T10:28:25;18.10;49.50
15879;DHT22;61999;51.514;14.614;2022-10-29T10:31:14;18.10;49.40
15879;DHT22;61999;51.514;14.614;2022-10-29T10:33:48;18.20;49.40
15879;DHT22;61999;51.514;14.614;2022-10-29T10:36:20;18.30;49.10
15879;DHT22;61999;51.514;14.614;2022-10-29T10:38:53;18.30;48.90
15879;DHT22;61999;51.514;14.614;2022-10-29T10:41:27;18.30;48.90
15879;DHT22;61999;51.514;14.614;2022-10-29T10:44:01;18.20;49.30
15879;DHT22;61999;51.514;14.614;2022-10-29T10:46:33;18.40;48.60
15879;DHT22;61999;51.514;14.614;2022-10-29T10:49:06;18.30;48.90
15879;DHT22;61999;51.514;14.614;2022-10-29T10:51:43;18.20;49.60
15879;DHT22;61999;51.514;14.614;2022-10-29T10:54:26;18.20;50.10
15879;DHT22;61999;51.514;14.614;2022-10-29T10:57:02;18.30;49.20
15879;DHT22;61999;51.514;14.614;2022-10-29T10:59:49;18.30;49.40
15879;DHT22;61999;51.514;14.614;2022-10-29T11:02:30;18.40;49.20
15879;DHT22;61999;51.514;14.614;2022-10-29T11:05:14;18.60;48.80
15879;DHT22;61999;51.514;14.614;2022-10-29T11:07:51;18.60;49.80
15879;DHT22;61999;51.514;14.614;2022-10-29T11:10:32;18.80;48.80
15879;DHT22;61999;51.514;14.614;2022-10-29T11:13:06;19.30;47.60
15879;DHT22;61999;51.514;14.614;2022-10-29T11:15:45;19.50;47.40
15879;DHT22;61999;51.514;14.614;2022-10-29T11:18:21;19.70;46.30
15879;DHT22;61999;51.514;14.614;2022-10-29T11:21:00;19.70;46.30
15879;DHT22;61999;51.514;14.614;2022-10-29T11:23:41;19.60;45.90
15879;DHT22;61999;51.514;14.614;2022-10-29T11:26:19;19.50;45.90
15879;DHT22;61999;51.514;14.614;2022-10-29T11:29:01;19.30;46.80
15879;DHT22;61999;51.514;14.614;2022-10-29T11:31:43;19.20;47.10
15879;DHT22;61999;51.514;14.614;2022-10-29T11:34:23;19.30;47.20
15879;DHT22;61999;51.514;14.614;2022-10-29T11:36:59;19.40;47.80
15879;DHT22;61999;51.514;14.614;2022-10-29T11:39:41;19.60;46.50
15879;DHT22;61999;51.514;14.614;2022-10-29T11:42:24;19.70;47.30
15879;DHT22;61999;51.514;14.614;2022-10-29T11:44:53;20.10;45.70
15879;DHT22;61999;51.514;14.614;2022-10-29T11:47:32;20.30;45.40
15879;DHT22;61999;51.514;14.614;2022-10-29T11:50:20;20.30;44.70
15879;DHT22;61999;51.514;14.614;2022-10-29T11:53:02;20.20;44.60
15879;DHT22;61999;51.514;14.614;2022-10-29T11:55:44;19.80;45.30
15879;DHT22;61999;51.514;14.614;2022-10-29T11:58:28;19.40;45.90
15879;DHT22;61999;51.514;14.614;2022-10-29T12:01:06;19.00;46.80
15879;DHT22;61999;51.514;14.614;2022-10-29T12:06:55;18.70;47.60
15879;DHT22;61999;51.514;14.614;2022-10-29T12:10:21;18.70;47.80
15879;DHT22;61999;51.514;14.614;2022-10-29T12:13:02;18.70;48.90
15879;DHT22;61999;51.514;14.614;2022-10-29T12:15:45;19.10;47.60
15879;DHT22;61999;51.514;14.614;2022-10-29T12:18:32;19.50;46.80
15879;DHT22;61999;51.514;14.614;2022-10-29T12:21:17;19.60;46.80
15879;DHT22;61999;51.514;14.614;2022-10-29T12:24:04;19.70;47.60
15879;DHT22;61999;51.514;14.614;2022-10-29T12:26:47;19.80;47.20
15879;DHT22;61999;51.514;14.614;2022-10-29T12:29:32;20.10;47.70
15879;DHT22;61999;51.514;14.614;2022-10-29T12:32:16;20.40;47.70
15879;DHT22;61999;51.514;14.614;2022-10-29T12:34:54;20.60;46.80
15879;DHT22;61999;51.514;14.614;2022-10-29T12:37:34;20.90;46.50
15879;DHT22;61999;51.514;14.614;2022-10-29T12:40:14;21.20;45.60
15879;DHT22;61999;51.514;14.614;2022-10-29T12:42:47;21.30;45.90
15879;DHT22;61999;51.514;14.614;2022-10-29T12:45:31;21.60;43.80
15879;DHT22;61999;51.514;14.614;2022-10-29T12:48:15;21.70;44.00
15879;DHT22;61999;51.514;14.614;2022-10-29T12:50:57;21.80;43.10
15879;DHT22;61999;51.514;14.614;2022-10-29T12:53:38;21.80;44.10
15879;DHT22;61999;51.514;14.614;2022-10-29T12:56:18;21.80;44.60
15879;DHT22;61999;51.514;14.614;2022-10-29T12:58:48;22.00;45.00
15879;DHT22;61999;51.514;14.614;2022-10-29T13:07:36;22.40;44.60
15879;DHT22;61999;51.514;14.614;2022-10-29T13:10:57;23.30;41.90
15879;DHT22;61999;51.514;14.614;2022-10-29T13:13:39;23.80;40.40
15879;DHT22;61999;51.514;14.614;2022-10-29T13:16:19;24.20;39.00
15879;DHT22;61999;51.514;14.614;2022-10-29T13:19:18;24.10;40.40
15879;DHT22;61999;51.514;14.614;2022-10-29T13:22:29;24.10;39.90
15879;DHT22;61999;51.514;14.614;2022-10-29T13:25:35;24.30;39.90
15879;DHT22;61999;51.514;14.614;2022-10-29T13:28:47;24.40;40.10
15879;DHT22;61999;51.514;14.614;2022-10-29T13:31:45;24.70;38.40
15879;DHT22;61999;51.514;14.614;2022-10-29T13:34:53;24.70;38.80
15879;DHT22;61999;51.514;14.614;2022-10-29T13:37:50;24.60;37.40
15879;DHT22;61999;51.514;14.614;2022-10-29T13:43:51;24.40;38.80
15879;DHT22;61999;51.514;14.614;2022-10-29T13:46:45;24.30;38.80
15879;DHT22;61999;51.514;14.614;2022-10-29T13:49:19;24.30;38.70
15879;DHT22;61999;51.514;14.614;2022-10-29T13:51:56;24.30;38.10
15879;DHT22;61999;51.514;14.614;2022-10-29T13:54:35;24.20;39.00
15879;DHT22;61999;51.514;14.614;2022-10-29T13:57:16;24.00;38.40
15879;DHT22;61999;51.514;14.614;2022-10-29T13:59:49;24.00;39.00
15879;DHT22;61999;51.514;14.614;2022-10-29T14:02:33;23.80;38.60
15879;DHT22;61999;51.514;14.614;2022-10-29T14:05:18;23.60;39.10
15879;DHT22;61999;51.514;14.614;2022-10-29T14:07:51;23.50;39.00
15879;DHT22;61999;51.514;14.614;2022-10-29T14:10:24;23.40;39.00
15879;DHT22;61999;51.514;14.614;2022-10-29T14:13:15;23.20;39.10
15879;DHT22;61999;51.514;14.614;2022-10-29T14:16:00;23.10;39.40
15879;DHT22;61999;51.514;14.614;2022-10-29T14:18:31;22.90;39.90
15879;DHT22;61999;51.514;14.614;2022-10-29T14:21:01;22.80;39.60
15879;DHT22;61999;51.514;14.614;2022-10-29T14:23:31;22.70;40.50
15879;DHT22;61999;51.514;14.614;2022-10-29T14:26:00;22.70;40.90
15879;DHT22;61999;51.514;14.614;2022-10-29T14:28:31;22.80;40.20
15879;DHT22;61999;51.514;14.614;2022-10-29T14:31:02;22.80;40.20
15879;DHT22;61999;51.514;14.614;2022-10-29T14:33:34;22.60;40.10
15879;DHT22;61999;51.514;14.614;2022-10-29T14:36:10;22.70;39.80
15879;DHT22;61999;51.514;14.614;2022-10-29T14:38:49;22.50;39.70
15879;DHT22;61999;51.514;14.614;2022-10-29T14:41:20;22.30;39.80
15879;DHT22;61999;51.514;14.614;2022-10-29T14:44:02;22.00;40.10
15879;DHT22;61999;51.514;14.614;2022-10-29T14:46:36;21.70;40.30
15879;DHT22;61999;51.514;14.614;2022-10-29T14:49:12;21.50;40.70
15879;DHT22;61999;51.514;14.614;2022-10-29T14:51:49;21.30;40.90
15879;DHT22;61999;51.514;14.614;2022-10-29T14:54:22;21.00;41.20
15879;DHT22;61999;51.514;14.614;2022-10-29T14:56:56;20.80;42.10
15879;DHT22;61999;51.514;14.614;2022-10-29T14:59:30;20.60;41.80
15879;DHT22;61999;51.514;14.614;2022-10-29T15:02:09;20.40;42.00
15879;DHT22;61999;51.514;14.614;2022-10-29T15:04:58;20.10;42.10
15879;DHT22;61999;51.514;14.614;2022-10-29T15:07:31;20.00;42.10
15879;DHT22;61999;51.514;14.614;2022-10-29T15:10:15;19.80;42.80
15879;DHT22;61999;51.514;14.614;2022-10-29T15:12:49;19.60;43.80
15879;DHT22;61999;51.514;14.614;2022-10-29T15:15:28;19.40;43.00
15879;DHT22;61999;51.514;14.614;2022-10-29T15:18:02;19.20;43.20
15879;DHT22;61999;51.514;14.614;2022-10-29T15:20:35;19.00;44.90
15879;DHT22;61999;51.514;14.614;2022-10-29T15:23:17;18.80;44.20
15879;DHT22;61999;51.514;14.614;2022-10-29T15:25:51;18.60;43.90
15879;DHT22;61999;51.514;14.614;2022-10-29T15:28:27;18.50;44.10
15879;DHT22;61999;51.514;14.614;2022-10-29T15:31:02;18.30;44.40
15879;DHT22;61999;51.514;14.614;2022-10-29T15:33:33;18.10;44.40
15879;DHT22;61999;51.514;14.614;2022-10-29T15:36:04;18.00;44.50
15879;DHT22;61999;51.514;14.614;2022-10-29T15:39:06;17.90;45.50
15879;DHT22;61999;51.514;14.614;2022-10-29T15:41:54;17.70;44.70
15879;DHT22;61999;51.514;14.614;2022-10-29T15:44:31;17.60;45.10
15879;DHT22;61999;51.514;14.614;2022-10-29T15:47:17;17.40;45.20
15879;DHT22;61999;51.514;14.614;2022-10-29T15:49:47;17.20;45.30
15879;DHT22;61999;51.514;14.614;2022-10-29T15:52:16;17.10;45.60
15879;DHT22;61999;51.514;14.614;2022-10-29T15:54:46;17.00;45.90
15879;DHT22;61999;51.514;14.614;2022-10-29T15:57:14;16.80;46.10
15879;DHT22;61999;51.514;14.614;2022-10-29T15:59:43;16.70;46.10
15879;DHT22;61999;51.514;14.614;2022-10-29T16:02:14;16.60;46.30
15879;DHT22;61999;51.514;14.614;2022-10-29T16:04:45;16.40;46.50
15879;DHT22;61999;51.514;14.614;2022-10-29T16:07:14;16.30;46.80
15879;DHT22;61999;51.514;14.614;2022-10-29T16:09:45;16.20;46.90
15879;DHT22;61999;51.514;14.614;2022-10-29T16:12:16;16.10;47.90
15879;DHT22;61999;51.514;14.614;2022-10-29T16:14:44;16.00;47.20
15879;DHT22;61999;51.514;14.614;2022-10-29T16:17:15;15.80;47.30
15879;DHT22;61999;51.514;14.614;2022-10-29T16:19:46;15.70;47.60
15879;DHT22;61999;51.514;14.614;2022-10-29T16:22:16;15.60;48.50
15879;DHT22;61999;51.514;14.614;2022-10-29T16:24:51;15.50;48.20
15879;DHT22;61999;51.514;14.614;2022-10-29T16:27:19;15.40;48.00
15879;DHT22;61999;51.514;14.614;2022-10-29T16:29:47;15.30;48.10